Time;durP1;ratioP1;P1;durP2;ratioP2;P2;SDS_P1;SDS_P2;PMS_P1;PMS_P2;Temp;Humidity;BMP_temperature;BMP_pressure;BME280_temperature;BME280_humidity;BME280_pressure;Samples;Min_cycle;Max_cycle;Signal;HPM_P1;HPM_P2
2022/08/17 00:01:03;;;;;;;24.42;18.73;;;19.00;99.90;;;;;;5053419;28;20082;-79
2022/08/17 00:03:34;;;;;;;23.17;17.67;;;19.00;99.90;;;;;;5053539;28;20543;-79
2022/08/17 00:06:14;;;;;;;23.95;17.52;;;18.90;99.90;;;;;;5053020;28;20037;-78
2022/08/17 00:08:46;;;;;;;23.83;17.45;;;18.80;99.90;;;;;;5053832;28;20052;-80
2022/08/17 00:11:15;;;;;;;29.83;19.70;;;18.80;99.90;;;;;;5053276;28;20510;-80
2022/08/17 00:13:45;;;;;;;23.50;18.70;;;18.80;99.90;;;;;;5067861;28;20049;-78
2022/08/17 00:16:23;;;;;;;26.10;19.23;;;18.80;99.90;;;;;;5076397;28;20040;-79
2022/08/17 00:18:49;;;;;;;26.10;19.33;;;18.80;99.90;;;;;;5094187;28;20056;-79
2022/08/17 00:21:17;;;;;;;25.50;19.80;;;18.80;99.90;;;;;;5055367;28;20480;-79
2022/08/17 00:23:43;;;;;;;24.63;19.27;;;18.80;99.90;;;;;;5053088;28;20251;-79
2022/08/17 00:26:09;;;;;;;29.92;20.00;;;18.70;99.90;;;;;;5052793;28;20050;-80
2022/08/17 00:28:36;;;;;;;25.05;17.45;;;18.70;99.90;;;;;;5052735;28;20041;-79
2022/08/17 00:31:02;;;;;;;23.40;17.67;;;18.70;99.90;;;;;;5036203;28;20044;-80
2022/08/17 00:33:30;;;;;;;30.73;18.88;;;18.60;99.90;;;;;;5052696;28;20055;-80
2022/08/17 00:35:56;;;;;;;25.88;19.00;;;18.60;99.90;;;;;;5052949;28;20052;-80
2022/08/17 00:38:23;;;;;;;25.30;18.58;;;18.60;99.90;;;;;;5036020;28;20041;-80
2022/08/17 00:41:00;;;;;;;28.80;20.98;;;18.70;99.90;;;;;;5052716;28;20040;-80
2022/08/17 00:43:28;;;;;;;30.00;22.45;;;18.60;99.90;;;;;;5052685;28;20496;-80
2022/08/17 00:45:55;;;;;;;35.03;22.10;;;18.70;99.90;;;;;;5035763;28;20044;-80
2022/08/17 00:48:21;;;;;;;34.50;23.95;;;18.60;99.90;;;;;;5052657;28;20037;-80
2022/08/17 00:51:25;;;;;;;30.63;22.05;;;18.60;99.90;;;;;;5052512;28;20085;-79
2022/08/17 00:54:22;;;;;;;33.38;22.50;;;18.70;99.90;;;;;;5023372;28;20419;-80
2022/08/17 00:57:09;;;;;;;34.55;23.77;;;18.60;99.90;;;;;;5039366;28;20329;-80
2022/08/17 00:59:42;;;;;;;35.95;21.70;;;18.50;99.90;;;;;;5052533;28;20506;-80
2022/08/17 01:02:12;;;;;;;32.55;23.77;;;18.50;99.90;;;;;;5052453;28;20037;-80
2022/08/17 01:04:38;;;;;;;36.78;24.52;;;18.50;99.90;;;;;;5052685;28;20040;-79
2022/08/17 01:07:05;;;;;;;34.45;24.77;;;18.50;99.90;;;;;;5052769;28;20510;-79
2022/08/17 01:09:31;;;;;;;36.03;24.52;;;18.50;99.90;;;;;;5052409;28;20445;-80
2022/08/17 01:11:57;;;;;;;39.88;26.42;;;18.50;99.90;;;;;;5052463;28;20044;-80
2022/08/17 01:14:24;;;;;;;40.20;25.42;;;18.50;99.90;;;;;;5036001;28;20036;-80
2022/08/17 01:16:53;;;;;;;38.20;24.42;;;18.50;99.90;;;;;;5053831;28;20048;-80
2022/08/17 01:19:28;;;;;;;38.20;25.33;;;18.50;99.90;;;;;;5056038;28;20048;-80
2022/08/17 01:22:13;;;;;;;36.67;26.35;;;18.50;99.90;;;;;;5056109;28;20055;-80
2022/08/17 01:24:47;;;;;;;39.53;26.48;;;18.50;99.90;;;;;;5056122;28;20049;-80
2022/08/17 01:27:14;;;;;;;39.53;26.75;;;18.50;99.90;;;;;;5056267;28;20036;-78
2022/08/17 01:29:44;;;;;;;38.75;27.05;;;18.50;99.90;;;;;;5055536;28;20060;-79
2022/08/17 01:32:10;;;;;;;38.80;25.27;;;18.40;99.90;;;;;;5056000;28;20048;-80
2022/08/17 01:34:36;;;;;;;40.38;25.83;;;18.40;99.90;;;;;;5056553;28;20514;-80
2022/08/17 01:37:02;;;;;;;43.63;26.77;;;18.30;99.90;;;;;;5039674;28;20509;-79
2022/08/17 01:40:17;;;;;;;44.75;30.23;;;18.30;99.90;;;;;;5055510;28;20110;-79
2022/08/17 01:42:52;;;;;;;44.53;28.13;;;18.20;99.90;;;;;;5048227;28;20125;-80
2022/08/17 01:45:25;;;;;;;45.88;30.25;;;18.20;99.90;;;;;;5055877;28;20075;-80
2022/08/17 01:47:52;;;;;;;48.60;28.65;;;18.30;99.90;;;;;;5056801;28;20433;-79
2022/08/17 01:50:26;;;;;;;46.00;28.77;;;18.30;99.90;;;;;;5055996;28;20048;-79
2022/08/17 01:53:07;;;;;;;48.47;29.75;;;18.20;99.90;;;;;;5055120;28;20032;-79
2022/08/17 01:55:39;;;;;;;47.50;29.60;;;18.20;99.90;;;;;;5052840;28;20395;-79
2022/08/17 01:58:08;;;;;;;;;;;18.10;99.90;;;;;;5049067;28;20445;-79
2022/08/17 02:00:35;;;;;;;43.97;29.85;;;18.10;99.90;;;;;;5037875;28;20379;-79
2022/08/17 02:03:02;;;;;;;48.13;31.10;;;18.10;99.90;;;;;;5053898;28;20032;-80
2022/08/17 02:05:27;;;;;;;51.00;31.00;;;18.10;99.90;;;;;;5049583;28;20097;-78
2022/08/17 02:07:53;;;;;;;44.25;30.00;;;18.10;99.90;;;;;;5041270;28;20466;-80
2022/08/17 02:10:18;;;;;;;42.63;28.92;;;18.10;99.90;;;;;;5035368;28;20051;-80
2022/08/17 02:12:44;;;;;;;43.55;29.25;;;18.10;99.90;;;;;;5035511;28;20179;-79
2022/08/17 02:15:13;;;;;;;43.75;29.35;;;18.10;99.90;;;;;;5053599;28;20033;-78
2022/08/17 02:17:39;;;;;;;49.10;30.40;;;18.10;99.90;;;;;;5035994;28;20045;-79
2022/08/17 02:20:07;;;;;;;50.88;32.80;;;18.10;99.90;;;;;;5018906;28;20045;-79
2022/08/17 02:22:35;;;;;;;46.55;31.77;;;18.20;99.90;;;;;;5035912;28;20514;-80
2022/08/17 02:25:01;;;;;;;46.28;31.20;;;18.20;99.90;;;;;;5035926;28;20139;-77
2022/08/17 02:27:26;;;;;;;47.00;31.13;;;18.20;99.90;;;;;;5018988;28;20128;-79
2022/08/17 02:29:52;;;;;;;52.60;33.45;;;18.20;99.90;;;;;;5034688;28;20119;-79
2022/08/17 02:32:21;;;;;;;48.25;31.90;;;18.20;99.90;;;;;;5019684;28;20430;-80
2022/08/17 02:34:47;;;;;;;54.80;33.63;;;18.20;99.90;;;;;;5036773;28;20091;-80
2022/08/17 02:37:16;;;;;;;51.30;34.40;;;18.20;99.90;;;;;;5036693;28;20076;-78
2022/08/17 02:39:41;;;;;;;55.38;33.72;;;18.20;99.90;;;;;;5036091;28;20095;-79
2022/08/17 02:42:07;;;;;;;58.38;35.08;;;18.10;99.90;;;;;;5035581;28;20037;-80
2022/08/17 02:44:33;;;;;;;58.83;35.15;;;18.10;99.90;;;;;;5036242;28;20045;-79
2022/08/17 02:46:59;;;;;;;53.03;33.85;;;18.10;99.90;;;;;;5035340;28;20539;-80
2022/08/17 02:49:24;;;;;;;57.50;34.05;;;18.10;99.90;;;;;;5034387;28;20068;-80
2022/08/17 02:51:50;;;;;;;57.53;34.55;;;18.10;99.90;;;;;;5034360;28;20083;-79
2022/08/17 02:54:16;;;;;;;55.83;34.33;;;18.10;99.90;;;;;;5034553;28;20106;-79
2022/08/17 02:56:42;;;;;;;58.20;35.20;;;18.10;99.90;;;;;;5034268;28;20511;-79
2022/08/17 02:59:08;;;;;;;54.05;33.25;;;18.10;99.90;;;;;;5034083;28;20049;-80
2022/08/17 03:01:33;;;;;;;56.80;33.00;;;18.10;99.90;;;;;;5051695;28;20090;-80
2022/08/17 03:03:59;;;;;;;58.35;34.67;;;18.10;99.90;;;;;;5034519;28;20048;-79
2022/08/17 03:06:25;;;;;;;52.05;33.22;;;18.00;99.90;;;;;;5034138;28;20044;-79
2022/08/17 03:08:53;;;;;;;56.38;33.72;;;18.10;99.90;;;;;;5034052;28;20044;-80
2022/08/17 03:11:19;;;;;;;51.60;33.00;;;18.10;99.90;;;;;;5017427;28;20438;-79
2022/08/17 03:13:44;;;;;;;54.20;33.58;;;18.00;99.90;;;;;;5034071;28;20040;-79
2022/08/17 03:16:10;;;;;;;52.55;33.05;;;18.10;99.90;;;;;;5033894;28;20127;-79
2022/08/17 03:18:36;;;;;;;52.92;33.60;;;18.10;99.90;;;;;;5051760;28;20048;-80
2022/08/17 03:21:03;;;;;;;50.67;33.08;;;18.00;99.90;;;;;;5033468;28;20033;-79
2022/08/17 03:23:31;;;;;;;53.95;31.58;;;18.00;99.90;;;;;;5033855;28;20048;-79
2022/08/17 03:25:57;;;;;;;54.90;34.55;;;18.10;99.90;;;;;;5051408;28;20116;-79
2022/08/17 03:28:24;;;;;;;53.20;32.78;;;18.10;99.90;;;;;;5033571;28;20037;-79
2022/08/17 03:30:50;;;;;;;50.60;32.30;;;18.10;99.90;;;;;;5033134;28;20037;-79
2022/08/17 03:33:16;;;;;;;56.53;33.80;;;18.10;99.90;;;;;;5033528;28;20116;-79
2022/08/17 03:35:42;;;;;;;52.10;31.73;;;18.20;99.90;;;;;;5033546;28;20216;-80
2022/08/17 03:38:09;;;;;;;50.90;31.80;;;18.10;99.90;;;;;;5033450;28;20039;-79
2022/08/17 03:40:35;;;;;;;50.40;33.50;;;18.20;99.90;;;;;;5033085;28;20091;-80
2022/08/17 03:43:06;;;;;;;55.60;34.75;;;18.30;99.90;;;;;;5016841;28;20044;-79
2022/08/17 03:56:43;;;;;;;55.08;33.75;;;18.30;99.90;;;;;;5033310;28;20095;-80
2022/08/17 03:59:18;;;;;;;51.30;32.65;;;18.30;99.90;;;;;;5033423;28;20079;-79
2022/08/17 04:01:46;;;;;;;54.45;32.83;;;18.30;99.90;;;;;;5032767;28;20045;-80
2022/08/17 04:04:12;;;;;;;49.10;30.02;;;18.40;99.90;;;;;;5033329;28;20128;-80
2022/08/17 04:06:39;;;;;;;50.95;32.13;;;18.40;99.90;;;;;;5016622;28;20044;-80
2022/08/17 04:09:05;;;;;;;49.65;31.17;;;18.40;99.90;;;;;;5032920;28;20056;-80
2022/08/17 04:11:32;;;;;;;49.38;31.27;;;18.40;99.90;;;;;;5032620;28;20056;-80
2022/08/17 04:13:57;;;;;;;48.33;30.85;;;18.30;99.90;;;;;;5032825;28;20053;-79
2022/08/17 04:16:24;;;;;;;51.15;30.40;;;18.30;99.90;;;;;;5033028;28;20044;-81
2022/08/17 04:18:50;;;;;;;52.75;31.13;;;18.30;99.90;;;;;;5033003;28;20089;-79
2022/08/17 04:21:17;;;;;;;55.53;32.55;;;18.20;99.90;;;;;;5015971;28;20049;-80
2022/08/17 04:23:43;;;;;;;53.42;31.27;;;18.30;99.90;;;;;;5035956;28;20044;-80
2022/08/17 04:26:09;;;;;;;49.17;31.73;;;18.30;99.90;;;;;;5056789;28;20041;-79
2022/08/17 04:28:34;;;;;;;48.58;31.00;;;18.30;99.90;;;;;;5035063;28;20041;-79
2022/08/17 04:31:00;;;;;;;54.80;32.38;;;18.40;99.90;;;;;;5032395;28;20447;-79
2022/08/17 04:33:28;;;;;;;47.05;30.80;;;18.40;99.90;;;;;;5033224;28;20488;-80
2022/08/17 04:35:58;;;;;;;48.25;31.05;;;18.40;99.90;;;;;;5032678;28;20102;-80
2022/08/17 04:38:31;;;;;;;49.38;31.92;;;18.40;99.90;;;;;;5033048;28;20377;-80
2022/08/17 04:43:44;;;;;;;49.53;30.65;;;18.40;99.90;;;;;;5032783;28;20403;-80
2022/08/17 04:46:13;;;;;;;52.08;30.55;;;18.50;99.90;;;;;;5032952;28;20045;-80
2022/08/17 04:48:47;;;;;;;47.75;31.35;;;18.50;99.90;;;;;;5032627;28;20076;-80
2022/08/17 04:51:19;;;;;;;49.53;31.08;;;18.50;99.90;;;;;;5032707;28;20041;-79
2022/08/17 04:53:48;;;;;;;48.03;32.13;;;18.50;99.90;;;;;;5020319;28;20051;-80
2022/08/17 04:56:15;;;;;;;45.40;30.20;;;18.50;99.90;;;;;;5020019;28;20052;-79
2022/08/17 04:58:49;;;;;;;48.70;32.30;;;18.60;99.90;;;;;;5019802;28;20037;-80
2022/08/17 05:01:15;;;;;;;47.25;30.90;;;18.60;99.90;;;;;;5019711;28;20067;-80
2022/08/17 05:03:42;;;;;;;45.92;29.77;;;18.60;99.90;;;;;;5036621;28;20464;-79
2022/08/17 05:06:07;;;;;;;46.15;30.45;;;18.70;99.90;;;;;;5019853;28;20040;-79
2022/08/17 05:08:33;;;;;;;45.95;30.38;;;18.70;99.90;;;;;;5054009;28;20048;-79
2022/08/17 05:10:59;;;;;;;49.67;31.10;;;18.70;99.90;;;;;;5019279;28;20072;-79
2022/08/17 05:13:28;;;;;;;47.58;30.35;;;18.80;99.90;;;;;;5019951;28;20072;-81
2022/08/17 05:15:59;;;;;;;49.85;29.50;;;18.80;99.90;;;;;;5036232;28;20495;-79
2022/08/17 05:18:25;;;;;;;45.58;29.00;;;18.90;99.90;;;;;;5036344;28;20095;-79
2022/08/17 05:20:52;;;;;;;44.97;27.92;;;18.80;99.90;;;;;;5036045;28;20115;-81
2022/08/17 05:23:19;;;;;;;44.55;30.50;;;18.90;99.90;;;;;;5035853;28;20072;-80
2022/08/17 05:25:47;;;;;;;48.67;29.50;;;18.90;99.90;;;;;;5036187;28;20320;-79
2022/08/17 05:28:18;;;;;;;44.38;29.10;;;18.90;99.90;;;;;;5019589;28;20090;-80
2022/08/17 05:30:45;;;;;;;48.75;30.00;;;19.00;99.90;;;;;;5035582;28;20053;-78
2022/08/17 05:33:16;;;;;;;45.17;29.25;;;19.00;99.90;;;;;;5035904;28;20095;-78
2022/08/17 05:35:46;;;;;;;48.55;30.48;;;19.00;99.90;;;;;;5019407;28;20077;-79
2022/08/17 05:38:13;;;;;;;44.90;29.58;;;19.10;99.90;;;;;;5036208;28;20412;-79
2022/08/17 05:40:39;;;;;;;50.72;28.65;;;19.20;99.90;;;;;;5053408;28;20037;-78
2022/08/17 05:43:10;;;;;;;44.75;30.05;;;19.10;99.90;;;;;;5019100;28;20487;-79
2022/08/17 05:45:46;;;;;;;44.63;28.47;;;19.10;99.90;;;;;;5035860;28;20049;-80
2022/08/17 05:48:12;;;;;;;44.55;28.77;;;19.10;99.90;;;;;;5035673;28;20056;-79
2022/08/17 05:50:59;;;;;;;43.63;29.33;;;19.20;99.90;;;;;;5035254;28;20049;-81
2022/08/17 05:53:49;;;;;;;48.78;28.58;;;19.20;99.90;;;;;;5035800;28;20084;-79
2022/08/17 05:56:35;;;;;;;46.63;29.50;;;19.30;99.90;;;;;;5035503;28;20040;-79
2022/08/17 05:59:50;;;;;;;46.97;29.52;;;19.40;99.90;;;;;;4969529;28;20082;-79
2022/08/17 06:02:34;;;;;;;46.40;28.95;;;19.50;99.90;;;;;;4920868;28;20078;-78
2022/08/17 06:05:00;;;;;;;47.50;29.70;;;19.60;99.90;;;;;;4952149;29;20082;-79
2022/08/17 06:07:35;;;;;;;48.80;29.83;;;19.70;99.90;;;;;;5001699;28;20080;-78
2022/08/17 06:10:04;;;;;;;45.08;30.23;;;19.80;99.90;;;;;;5034831;28;20039;-80
2022/08/17 06:13:01;;;;;;;41.80;29.35;;;19.90;99.90;;;;;;5053100;28;20040;-78
2022/08/17 06:15:35;;;;;;;47.03;29.83;;;20.00;99.90;;;;;;5035016;28;20077;-78
2022/08/17 06:18:05;;;;;;;42.40;28.73;;;20.20;99.90;;;;;;5035040;28;20052;-79
2022/08/17 06:20:52;;;;;;;43.58;28.27;;;20.20;99.90;;;;;;5034523;28;20045;-81
2022/08/17 06:23:35;;;;;;;37.75;27.38;;;20.30;99.90;;;;;;5034970;28;20072;-78
2022/08/17 06:26:28;;;;;;;41.83;28.30;;;20.40;99.90;;;;;;5018764;28;20044;-78
2022/08/17 06:29:23;;;;;;;39.53;26.65;;;20.40;99.90;;;;;;5019021;28;20107;-78
2022/08/17 06:31:49;;;;;;;39.72;28.17;;;20.40;99.90;;;;;;5018087;28;20048;-76
2022/08/17 06:34:15;;;;;;;37.33;27.30;;;20.40;99.90;;;;;;5052450;28;20120;-77
2022/08/17 06:36:59;;;;;;;40.25;27.88;;;20.40;99.90;;;;;;5034625;28;20119;-75
2022/08/17 06:39:39;;;;;;;42.05;26.15;;;20.50;99.90;;;;;;5034987;28;20045;-79
2022/08/17 06:42:20;;;;;;;41.30;27.17;;;20.50;99.90;;;;;;5036743;28;20777;-80
2022/08/17 06:44:53;;;;;;;42.67;26.92;;;20.50;99.90;;;;;;5038084;28;20044;-80
2022/08/17 06:47:25;;;;;;;41.03;26.63;;;20.50;99.90;;;;;;5021767;28;20048;-81
2022/08/17 06:50:10;;;;;;;38.30;25.52;;;20.60;99.90;;;;;;5020467;28;20095;-81
2022/08/17 06:53:04;;;;;;;35.38;24.75;;;20.60;99.90;;;;;;5037671;28;20052;-80
2022/08/17 06:56:09;;;;;;;35.92;25.38;;;20.60;99.90;;;;;;4995436;28;20057;-81
2022/08/17 06:58:37;;;;;;;39.83;25.90;;;20.60;99.90;;;;;;5036638;28;20129;-81
2022/08/17 07:01:21;;;;;;;34.50;24.95;;;20.70;99.90;;;;;;5035775;28;20052;-81
2022/08/17 07:04:11;;;;;;;34.47;24.95;;;20.90;99.90;;;;;;5036589;28;20520;-80
2022/08/17 07:06:52;;;;;;;38.03;24.25;;;21.10;99.90;;;;;;5035556;28;20506;-80
2022/08/17 07:09:22;;;;;;;35.03;24.77;;;21.20;99.90;;;;;;5035719;28;20055;-81
2022/08/17 07:11:47;;;;;;;35.83;24.52;;;21.20;99.90;;;;;;5035008;28;20500;-81
2022/08/17 07:14:38;;;;;;;33.95;23.83;;;21.20;99.90;;;;;;5035862;28;20052;-81
2022/08/17 07:17:11;;;;;;;34.70;23.35;;;21.10;99.90;;;;;;5066111;28;20040;-82
2022/08/17 07:19:40;;;;;;;32.40;23.95;;;21.10;99.90;;;;;;5050071;28;20406;-81
2022/08/17 07:22:33;;;;;;;34.72;23.80;;;21.10;99.90;;;;;;5055669;28;20047;-81
2022/08/17 07:25:03;;;;;;;31.17;23.27;;;21.00;99.90;;;;;;5057502;28;20147;-80
2022/08/17 07:27:34;;;;;;;37.28;25.73;;;20.90;99.90;;;;;;5056365;28;20055;-80
2022/08/17 07:30:08;;;;;;;36.70;24.38;;;20.80;99.90;;;;;;5057086;28;20044;-80
2022/08/17 07:32:44;;;;;;;35.95;24.70;;;20.70;99.90;;;;;;5057794;28;20045;-80
2022/08/17 07:35:30;;;;;;;37.88;25.90;;;20.60;99.90;;;;;;5056454;28;20117;-80
2022/08/17 07:38:13;;;;;;;39.17;25.85;;;20.60;99.90;;;;;;5057090;28;20044;-80
2022/08/17 07:40:44;;;;;;;35.97;26.85;;;20.60;99.90;;;;;;5055779;28;20449;-80
2022/08/17 07:43:23;;;;;;;34.60;23.25;;;20.60;99.90;;;;;;5056867;28;20075;-79
2022/08/17 07:48:42;;;;;;;;;;;21.10;99.90;;;;;;5073189;28;20051;-81
2022/08/17 07:51:24;;;;;;;34.15;23.63;;;21.20;99.90;;;;;;5040436;28;19916;-80
2022/08/17 07:53:52;;;;;;;33.92;24.30;;;21.30;99.90;;;;;;5036464;28;20099;-80
2022/08/17 07:56:36;;;;;;;37.22;24.27;;;21.30;99.90;;;;;;5036349;28;20040;-81
2022/08/17 07:59:15;;;;;;;31.63;23.27;;;21.40;99.90;;;;;;5060499;28;20045;-80
2022/08/17 08:01:44;;;;;;;37.88;26.17;;;21.30;99.90;;;;;;5038196;28;20041;-80
2022/08/17 08:04:33;;;;;;;37.10;25.67;;;21.30;99.90;;;;;;5060381;28;20098;-79
2022/08/17 08:07:01;;;;;;;39.92;24.88;;;21.20;99.90;;;;;;5039723;28;20120;-80
2022/08/17 08:09:42;;;;;;;34.78;24.30;;;21.20;99.90;;;;;;5044257;28;20048;-81
2022/08/17 08:12:34;;;;;;;35.17;25.98;;;21.30;99.90;;;;;;5034987;28;20045;-80
2022/08/17 08:15:02;;;;;;;35.88;25.42;;;21.30;99.90;;;;;;5035145;28;20048;-80
2022/08/17 08:17:35;;;;;;;37.63;26.58;;;21.50;99.90;;;;;;5023131;28;20527;-81
2022/08/17 08:20:07;;;;;;;38.75;26.48;;;21.60;99.90;;;;;;5046520;28;20041;-81
2022/08/17 08:22:45;;;;;;;39.42;27.15;;;21.70;99.90;;;;;;5055395;28;20040;-80
2022/08/17 08:25:16;;;;;;;38.13;26.63;;;21.80;99.90;;;;;;5046417;28;20048;-80
2022/08/17 08:28:12;;;;;;;37.13;27.65;;;21.80;99.90;;;;;;5052527;28;20037;-81
2022/08/17 08:30:45;;;;;;;36.55;25.88;;;21.90;99.90;;;;;;5042878;28;20573;-81
2022/08/17 08:33:39;;;;;;;36.83;26.35;;;21.90;99.90;;;;;;5034286;28;20166;-80
2022/08/17 08:36:58;;;;;;;35.13;24.95;;;22.00;99.90;;;;;;5041239;28;20086;-82
2022/08/17 08:39:35;;;;;;;39.22;25.30;;;22.00;99.90;;;;;;4984617;28;20049;-80
2022/08/17 08:42:16;;;;;;;37.00;25.05;;;22.00;99.90;;;;;;5034406;28;20053;-82
2022/08/17 08:44:51;;;;;;;38.23;25.40;;;22.00;99.90;;;;;;5044653;28;20115;-81
2022/08/17 08:47:25;;;;;;;34.83;25.60;;;22.00;99.90;;;;;;5052893;28;20040;-80
2022/08/17 08:50:01;;;;;;;36.17;25.80;;;22.00;99.90;;;;;;5040145;28;20048;-81
2022/08/17 08:52:48;;;;;;;33.60;23.85;;;22.00;99.90;;;;;;5034432;28;20131;-80
2022/08/17 08:55:34;;;;;;;40.42;24.73;;;22.20;99.90;;;;;;5039016;28;20087;-82
2022/08/17 08:58:07;;;;;;;30.30;22.17;;;22.30;99.90;;;;;;5050626;28;20055;-81
2022/08/17 09:00:37;;;;;;;31.92;24.38;;;22.30;99.90;;;;;;5046640;28;20048;-81
2022/08/17 09:03:20;;;;;;;35.00;23.08;;;22.40;99.90;;;;;;5054480;28;20051;-80
2022/08/17 09:06:21;;;;;;;33.80;24.00;;;22.40;99.90;;;;;;5044734;28;20037;-82
2022/08/17 09:09:06;;;;;;;34.42;25.83;;;22.50;99.90;;;;;;5056374;28;20092;-80
2022/08/17 09:11:40;;;;;;;30.00;23.30;;;22.60;99.90;;;;;;5041799;28;20102;-81
2022/08/17 09:14:24;;;;;;;29.48;22.15;;;22.70;99.90;;;;;;5054634;28;20125;-82
2022/08/17 09:17:01;;;;;;;29.73;19.75;;;22.80;99.90;;;;;;5064422;28;20032;-81
2022/08/17 09:19:56;;;;;;;31.15;21.42;;;23.00;99.90;;;;;;5026775;28;20559;-81
2022/08/17 09:22:34;;;;;;;30.88;20.00;;;23.00;99.90;;;;;;5052400;28;20101;-81
2022/08/17 09:25:17;;;;;;;31.00;21.30;;;23.00;99.90;;;;;;5054380;28;20060;-81
2022/08/17 09:28:04;;;;;;;32.50;20.52;;;23.00;99.90;;;;;;5051977;28;20459;-81
2022/08/17 09:31:02;;;;;;;28.50;21.27;;;22.90;99.90;;;;;;5046142;28;20510;-81
2022/08/17 09:33:30;;;;;;;33.92;20.13;;;22.80;99.90;;;;;;5040848;28;20052;-80
2022/08/17 09:36:03;;;;;;;31.08;19.45;;;22.80;99.90;;;;;;5054615;28;20036;-80
2022/08/17 09:38:51;;;;;;;34.97;21.05;;;22.90;99.90;;;;;;5055160;28;20052;-81
2022/08/17 09:41:44;;;;;;;28.67;20.42;;;22.90;99.90;;;;;;5050605;28;20037;-82
2022/08/17 09:44:47;;;;;;;26.95;19.27;;;23.10;99.90;;;;;;5055343;28;20041;-81
2022/08/17 09:47:25;;;;;;;30.48;20.67;;;23.10;99.90;;;;;;5038100;28;20047;-81
2022/08/17 09:49:59;;;;;;;30.75;21.80;;;23.30;99.90;;;;;;5037555;28;20084;-81
2022/08/17 09:52:28;;;;;;;29.80;21.67;;;23.40;99.90;;;;;;5021785;28;20037;-81
2022/08/17 09:54:56;;;;;;;32.22;22.85;;;23.50;99.90;;;;;;5038301;28;20044;-81
2022/08/17 09:57:22;;;;;;;26.85;21.10;;;23.60;99.90;;;;;;5039209;28;20053;-81
2022/08/17 10:00:15;;;;;;;31.55;22.02;;;23.60;99.90;;;;;;5054322;28;20056;-82
2022/08/17 10:02:56;;;;;;;29.88;21.17;;;23.90;99.90;;;;;;5046583;28;20583;-82
2022/08/17 10:05:42;;;;;;;29.48;21.80;;;24.10;99.90;;;;;;5054925;28;20044;-81
2022/08/17 10:08:28;;;;;;;28.05;21.10;;;24.20;99.90;;;;;;5057679;28;20037;-81
2022/08/17 10:11:17;;;;;;;31.08;21.15;;;24.40;99.90;;;;;;5039770;28;20120;-82
2022/08/17 10:14:04;;;;;;;31.77;23.20;;;24.80;99.90;;;;;;5048797;28;20087;-82
2022/08/17 10:16:42;;;;;;;28.95;21.83;;;25.20;99.90;;;;;;5055814;28;20213;-82
2022/08/17 10:19:14;;;;;;;29.70;20.23;;;25.60;99.90;;;;;;5056849;28;20049;-82
2022/08/17 10:27:25;;;;;;;23.67;18.30;;;26.00;99.90;;;;;;5053844;28;20071;-81
2022/08/17 10:29:56;;;;;;;30.55;19.65;;;26.20;99.90;;;;;;5047632;28;20052;-82
2022/08/17 10:32:39;;;;;;;;;;;26.30;99.90;;;;;;5056153;28;20123;-82
2022/08/17 10:35:06;;;;;;;139.45;30.27;;;26.40;99.90;;;;;;5052750;28;19923;-83
2022/08/17 10:37:45;;;;;;;28.88;20.10;;;26.50;99.90;;;;;;5047274;28;20119;-82
2022/08/17 10:40:36;;;;;;;24.63;19.20;;;26.80;99.90;;;;;;5039386;28;20049;-82
2022/08/17 10:43:31;;;;;;;27.35;18.90;;;27.10;99.90;;;;;;5055570;28;20049;-82
2022/08/17 10:46:19;;;;;;;27.40;19.13;;;27.40;99.90;;;;;;5066894;28;20043;-83
2022/08/17 10:49:04;;;;;;;23.75;18.58;;;27.50;99.90;;;;;;5024780;28;20121;-83
2022/08/17 10:51:37;;;;;;;21.50;18.45;;;27.40;99.90;;;;;;5043937;28;20068;-83
2022/08/17 10:54:05;;;;;;;23.42;17.95;;;27.30;99.90;;;;;;5050860;28;20025;-84
2022/08/17 10:56:47;;;;;;;112.53;25.77;;;27.10;99.90;;;;;;5044722;28;20136;-82
2022/08/17 10:59:34;;;;;;;68.47;20.88;;;27.00;99.90;;;;;;5036670;28;20049;-85
2022/08/17 11:02:16;;;;;;;20.52;15.63;;;26.90;99.90;;;;;;5052343;28;20052;-84
2022/08/17 11:05:14;;;;;;;134.13;28.98;;;26.80;99.90;;;;;;5050035;28;20098;-84
2022/08/17 11:08:05;;;;;;;28.48;17.10;;;26.60;99.90;;;;;;5030245;28;20032;-83
2022/08/17 11:10:59;;;;;;;80.05;20.52;;;26.50;99.90;;;;;;5049364;28;20041;-83
2022/08/17 11:13:47;;;;;;;21.05;16.13;;;26.30;99.90;;;;;;5048612;28;20052;-83
2022/08/17 11:16:37;;;;;;;120.50;25.00;;;26.20;99.90;;;;;;5046328;28;20059;-83
2022/08/17 11:19:45;;;;;;;22.42;15.07;;;26.10;99.90;;;;;;5050222;28;20334;-83
2022/08/17 11:22:29;;;;;;;17.60;13.95;;;26.00;99.90;;;;;;5046766;28;20091;-84
2022/08/17 11:25:07;;;;;;;20.63;15.63;;;25.80;99.90;;;;;;5033683;28;20039;-86
2022/08/17 11:27:35;;;;;;;18.23;14.82;;;25.70;99.90;;;;;;5033675;28;20043;-86
2022/08/17 11:30:07;;;;;;;20.10;15.88;;;25.60;99.90;;;;;;5033407;28;20053;-85
2022/08/17 11:32:44;;;;;;;32.10;16.67;;;25.60;99.90;;;;;;5032724;28;20124;-85
2022/08/17 11:35:22;;;;;;;21.65;15.60;;;25.60;99.90;;;;;;5047301;28;20080;-85
2022/08/17 11:38:15;;;;;;;20.83;16.30;;;25.60;99.90;;;;;;5053369;28;20561;-84
2022/08/17 11:40:59;;;;;;;21.33;15.20;;;25.40;99.90;;;;;;5052999;28;20085;-83
2022/08/17 11:43:51;;;;;;;24.02;15.40;;;25.30;99.90;;;;;;5054854;28;20086;-84
2022/08/17 11:46:23;;;;;;;;;;;25.40;99.90;;;;;;5071584;28;20058;-84
2022/08/17 11:52:00;;;;;;;19.92;14.50;;;25.70;99.90;;;;;;5048755;28;20040;-85
2022/08/17 11:54:29;;;;;;;18.95;14.30;;;25.70;99.90;;;;;;5053477;28;20059;-84
2022/08/17 11:56:57;;;;;;;20.25;14.75;;;25.70;99.90;;;;;;5052913;28;20044;-83
2022/08/17 11:59:32;;;;;;;22.02;14.77;;;25.60;99.90;;;;;;5034272;28;20052;-85
2022/08/17 12:02:21;;;;;;;21.85;14.60;;;25.40;99.90;;;;;;5033152;28;20497;-86
2022/08/17 12:05:22;;;;;;;22.08;16.88;;;25.30;99.90;;;;;;5039225;28;20116;-84
2022/08/17 12:08:10;;;;;;;19.33;16.50;;;25.20;99.90;;;;;;5036165;28;20041;-84
2022/08/17 12:10:47;;;;;;;22.38;17.45;;;25.20;99.90;;;;;;5051739;28;20123;-84
2022/08/17 12:13:15;;;;;;;28.48;19.23;;;25.00;99.90;;;;;;5049607;28;20041;-85
2022/08/17 12:15:48;;;;;;;24.27;17.38;;;24.80;99.90;;;;;;5016357;28;20041;-84
2022/08/17 12:18:18;;;;;;;23.98;17.85;;;24.80;99.90;;;;;;5049657;28;20049;-85
2022/08/17 12:20:59;;;;;;;27.30;19.00;;;24.80;99.90;;;;;;5042625;28;20064;-85
2022/08/17 12:24:09;;;;;;;27.85;18.83;;;24.80;99.90;;;;;;5045853;28;20499;-85
2022/08/17 12:26:35;;;;;;;28.00;20.20;;;24.80;99.90;;;;;;4956646;28;20045;-83
2022/08/17 12:29:06;;;;;;;24.45;19.33;;;24.70;99.90;;;;;;5033448;28;20049;-85
2022/08/17 12:31:46;;;;;;;27.45;20.55;;;24.70;99.90;;;;;;5051418;28;20049;-86
2022/08/17 12:34:18;;;;;;;23.10;17.33;;;24.70;99.90;;;;;;5035969;28;20098;-87
2022/08/17 12:36:49;;;;;;;22.23;16.52;;;24.80;99.90;;;;;;5034269;28;20045;-85
2022/08/17 12:39:22;;;;;;;25.42;19.63;;;25.00;99.90;;;;;;5043515;28;20519;-86
2022/08/17 12:41:51;;;;;;;21.77;17.55;;;25.00;99.90;;;;;;5024045;28;20112;-86
2022/08/17 12:44:20;;;;;;;24.92;17.75;;;25.00;99.90;;;;;;5033285;28;20043;-84
2022/08/17 12:47:00;;;;;;;24.95;18.15;;;25.00;99.90;;;;;;5051823;28;20047;-85
2022/08/17 12:49:38;;;;;;;24.05;17.45;;;24.90;99.90;;;;;;5043241;28;20072;-86
2022/08/17 12:52:06;;;;;;;31.17;16.85;;;24.80;99.90;;;;;;5052238;28;20032;-86
2022/08/17 12:54:44;;;;;;;25.63;17.38;;;24.80;99.90;;;;;;5047497;28;20041;-85
2022/08/17 12:57:20;;;;;;;23.73;18.20;;;24.80;99.90;;;;;;5035462;28;20414;-85
2022/08/17 12:59:57;;;;;;;23.88;16.05;;;24.90;99.90;;;;;;5047287;28;20443;-85
2022/08/17 13:02:40;;;;;;;24.50;17.63;;;24.90;99.90;;;;;;5032489;28;20044;-86
2022/08/17 13:05:16;;;;;;;23.52;16.15;;;25.00;99.90;;;;;;5032475;28;20033;-86
2022/08/17 13:07:43;;;;;;;19.70;15.20;;;24.90;99.90;;;;;;5032383;28;20040;-87
2022/08/17 13:10:21;;;;;;;20.52;16.40;;;24.80;99.90;;;;;;5032058;28;20497;-85
2022/08/17 13:12:49;;;;;;;29.55;17.73;;;24.80;99.90;;;;;;5038720;28;20044;-85
2022/08/17 13:15:29;;;;;;;25.75;17.33;;;24.60;99.90;;;;;;5053275;28;20179;-86
2022/08/17 13:17:58;;;;;;;22.17;17.90;;;24.60;99.90;;;;;;5036555;28;20414;-85
2022/08/17 13:20:24;;;;;;;23.02;18.02;;;24.60;99.90;;;;;;5019418;28;20044;-86
2022/08/17 13:22:56;;;;;;;21.88;16.58;;;24.50;99.90;;;;;;5048496;28;20043;-86
2022/08/17 13:25:24;;;;;;;32.40;23.27;;;24.40;99.90;;;;;;5053143;28;20033;-85
2022/08/17 13:27:52;;;;;;;21.42;15.30;;;24.30;99.90;;;;;;5054128;28;20111;-85
2022/08/17 13:30:27;;;;;;;21.60;16.92;;;24.30;99.90;;;;;;5047430;28;20048;-84
2022/08/17 13:32:54;;;;;;;24.50;18.15;;;24.30;99.90;;;;;;5055858;28;20032;-84